Terminal Aerodrome Forecast
Issued by NWS

Home | Current Version | Previous Version | Text Only | Print | Product List | Glossary On
Versions: 1 2 3 4 5 6 7 8 9 10 11 12 13 14 15 16 17 18 19 20 21 22 23 24 25
000
FTUS43 KAPX 271720
TAFAPN
TAF
KAPN 271720Z 2718/2818 31011G20KT P6SM VCSH BKN035
     FM271900 31011G20KT P6SM BKN035
     FM280000 30007KT P6SM BKN035
     FM280700 27003KT P6SM SCT035
     FM281200 22004KT P6SM SCT035
     FM281500 22007KT P6SM FEW040 OVC100=

USA.gov is the U.S. government's official web portal to all federal, state and local government web resources and services.